sensor_id;sensor_type;location;lat;lon;timestamp;temperature;humidity
3348;DHT22;1687;49.540;8.574;2023-03-29T00:01:15;10.00;53.70
3348;DHT22;1687;49.540;8.574;2023-03-29T00:03:41;9.90;54.70
3348;DHT22;1687;49.540;8.574;2023-03-29T00:06:10;9.90;54.90
3348;DHT22;1687;49.540;8.574;2023-03-29T00:08:40;9.80;54.80
3348;DHT22;1687;49.540;8.574;2023-03-29T00:11:07;9.90;55.70
3348;DHT22;1687;49.540;8.574;2023-03-29T00:13:34;9.80;55.10
3348;DHT22;1687;49.540;8.574;2023-03-29T00:16:00;9.80;55.20
3348;DHT22;1687;49.540;8.574;2023-03-29T00:18:26;9.80;55.40
3348;DHT22;1687;49.540;8.574;2023-03-29T00:20:56;9.90;55.60
3348;DHT22;1687;49.540;8.574;2023-03-29T00:23:22;9.90;55.60
3348;DHT22;1687;49.540;8.574;2023-03-29T00:25:50;10.00;54.90
3348;DHT22;1687;49.540;8.574;2023-03-29T00:28:18;10.00;54.90
3348;DHT22;1687;49.540;8.574;2023-03-29T00:30:45;10.00;54.90
3348;DHT22;1687;49.540;8.574;2023-03-29T00:33:10;10.00;54.90
3348;DHT22;1687;49.540;8.574;2023-03-29T00:35:37;10.10;55.10
3348;DHT22;1687;49.540;8.574;2023-03-29T00:38:04;10.10;55.00
3348;DHT22;1687;49.540;8.574;2023-03-29T00:40:31;10.00;55.00
3348;DHT22;1687;49.540;8.574;2023-03-29T00:42:57;10.00;55.00
3348;DHT22;1687;49.540;8.574;2023-03-29T00:45:28;10.00;55.00
3348;DHT22;1687;49.540;8.574;2023-03-29T00:48:02;10.00;55.20
3348;DHT22;1687;49.540;8.574;2023-03-29T00:50:36;10.10;55.40
3348;DHT22;1687;49.540;8.574;2023-03-29T00:56:05;10.00;55.40
3348;DHT22;1687;49.540;8.574;2023-03-29T00:58:43;10.10;55.50
3348;DHT22;1687;49.540;8.574;2023-03-29T01:01:20;10.10;55.50
3348;DHT22;1687;49.540;8.574;2023-03-29T01:03:58;10.00;55.40
3348;DHT22;1687;49.540;8.574;2023-03-29T01:06:28;10.00;55.40
3348;DHT22;1687;49.540;8.574;2023-03-29T01:08:58;9.80;56.30
3348;DHT22;1687;49.540;8.574;2023-03-29T01:11:26;9.80;56.50
3348;DHT22;1687;49.540;8.574;2023-03-29T01:13:59;9.80;56.50
3348;DHT22;1687;49.540;8.574;2023-03-29T01:16:31;9.70;56.30
3348;DHT22;1687;49.540;8.574;2023-03-29T01:18:59;9.70;56.80
3348;DHT22;1687;49.540;8.574;2023-03-29T01:21:43;9.80;56.90
3348;DHT22;1687;49.540;8.574;2023-03-29T01:27:37;9.80;56.90
3348;DHT22;1687;49.540;8.574;2023-03-29T01:30:18;9.80;56.90
3348;DHT22;1687;49.540;8.574;2023-03-29T01:33:11;9.60;56.80
3348;DHT22;1687;49.540;8.574;2023-03-29T01:35:43;9.60;57.00
3348;DHT22;1687;49.540;8.574;2023-03-29T01:38:27;9.70;57.40
3348;DHT22;1687;49.540;8.574;2023-03-29T01:41:06;9.70;57.40
3348;DHT22;1687;49.540;8.574;2023-03-29T01:43:37;9.70;57.30
3348;DHT22;1687;49.540;8.574;2023-03-29T01:46:33;9.70;57.30
3348;DHT22;1687;49.540;8.574;2023-03-29T01:52:08;9.70;57.60
3348;DHT22;1687;49.540;8.574;2023-03-29T01:54:49;9.70;57.70
3348;DHT22;1687;49.540;8.574;2023-03-29T01:57:18;9.70;57.50
3348;DHT22;1687;49.540;8.574;2023-03-29T01:59:45;9.70;57.70
3348;DHT22;1687;49.540;8.574;2023-03-29T02:02:14;9.70;57.70
3348;DHT22;1687;49.540;8.574;2023-03-29T02:04:46;9.70;57.80
3348;DHT22;1687;49.540;8.574;2023-03-29T02:07:17;9.70;58.00
3348;DHT22;1687;49.540;8.574;2023-03-29T02:09:50;9.70;57.90
3348;DHT22;1687;49.540;8.574;2023-03-29T02:12:18;9.70;57.90
3348;DHT22;1687;49.540;8.574;2023-03-29T02:14:44;9.80;58.20
3348;DHT22;1687;49.540;8.574;2023-03-29T02:17:22;9.90;58.30
3348;DHT22;1687;49.540;8.574;2023-03-29T02:20:14;9.90;58.20
3348;DHT22;1687;49.540;8.574;2023-03-29T02:23:04;9.90;58.10
3348;DHT22;1687;49.540;8.574;2023-03-29T02:25:34;9.80;58.20
3348;DHT22;1687;49.540;8.574;2023-03-29T02:28:03;9.70;58.00
3348;DHT22;1687;49.540;8.574;2023-03-29T02:30:39;9.80;58.40
3348;DHT22;1687;49.540;8.574;2023-03-29T02:33:21;9.80;58.40
3348;DHT22;1687;49.540;8.574;2023-03-29T02:35:59;9.90;58.50
3348;DHT22;1687;49.540;8.574;2023-03-29T02:38:28;9.90;58.50
3348;DHT22;1687;49.540;8.574;2023-03-29T02:40:55;9.90;58.30
3348;DHT22;1687;49.540;8.574;2023-03-29T02:43:23;9.90;58.60
3348;DHT22;1687;49.540;8.574;2023-03-29T02:45:50;9.90;58.60
3348;DHT22;1687;49.540;8.574;2023-03-29T02:48:18;9.90;58.60
3348;DHT22;1687;49.540;8.574;2023-03-29T02:50:48;9.90;58.50
3348;DHT22;1687;49.540;8.574;2023-03-29T02:53:19;9.80;58.60
3348;DHT22;1687;49.540;8.574;2023-03-29T02:55:48;9.80;58.80
3348;DHT22;1687;49.540;8.574;2023-03-29T02:58:14;9.80;58.70
3348;DHT22;1687;49.540;8.574;2023-03-29T03:00:44;9.70;58.40
3348;DHT22;1687;49.540;8.574;2023-03-29T03:03:11;9.60;58.50
3348;DHT22;1687;49.540;8.574;2023-03-29T03:05:38;9.60;58.80
3348;DHT22;1687;49.540;8.574;2023-03-29T03:08:04;9.50;58.70
3348;DHT22;1687;49.540;8.574;2023-03-29T03:10:35;9.50;58.90
3348;DHT22;1687;49.540;8.574;2023-03-29T03:13:01;9.50;59.10
3348;DHT22;1687;49.540;8.574;2023-03-29T03:15:27;9.50;59.10
3348;DHT22;1687;49.540;8.574;2023-03-29T03:17:53;9.60;59.10
3348;DHT22;1687;49.540;8.574;2023-03-29T03:20:19;9.60;59.00
3348;DHT22;1687;49.540;8.574;2023-03-29T03:22:47;9.70;59.20
3348;DHT22;1687;49.540;8.574;2023-03-29T03:25:16;9.60;59.00
3348;DHT22;1687;49.540;8.574;2023-03-29T03:27:44;9.60;59.10
3348;DHT22;1687;49.540;8.574;2023-03-29T03:30:10;9.60;59.10
3348;DHT22;1687;49.540;8.574;2023-03-29T03:32:36;9.60;59.20
3348;DHT22;1687;49.540;8.574;2023-03-29T03:35:03;9.50;59.20
3348;DHT22;1687;49.540;8.574;2023-03-29T03:37:30;9.50;59.20
3348;DHT22;1687;49.540;8.574;2023-03-29T03:39:56;9.50;59.30
3348;DHT22;1687;49.540;8.574;2023-03-29T03:42:22;9.40;59.10
3348;DHT22;1687;49.540;8.574;2023-03-29T03:44:48;9.30;59.10
3348;DHT22;1687;49.540;8.574;2023-03-29T03:47:14;9.40;59.60
3348;DHT22;1687;49.540;8.574;2023-03-29T03:49:40;9.40;59.60
3348;DHT22;1687;49.540;8.574;2023-03-29T03:52:06;9.40;59.50
3348;DHT22;1687;49.540;8.574;2023-03-29T03:54:33;9.40;59.50
3348;DHT22;1687;49.540;8.574;2023-03-29T03:56:58;9.40;59.50
3348;DHT22;1687;49.540;8.574;2023-03-29T03:59:24;9.40;59.50
3348;DHT22;1687;49.540;8.574;2023-03-29T04:01:51;9.40;59.70
3348;DHT22;1687;49.540;8.574;2023-03-29T04:04:17;9.40;59.70
3348;DHT22;1687;49.540;8.574;2023-03-29T04:06:43;9.40;59.70
3348;DHT22;1687;49.540;8.574;2023-03-29T04:09:09;9.30;59.70
3348;DHT22;1687;49.540;8.574;2023-03-29T04:11:36;9.30;59.80
3348;DHT22;1687;49.540;8.574;2023-03-29T04:14:02;9.30;59.90
3348;DHT22;1687;49.540;8.574;2023-03-29T04:16:28;9.30;59.80
3348;DHT22;1687;49.540;8.574;2023-03-29T04:18:54;9.30;59.90
3348;DHT22;1687;49.540;8.574;2023-03-29T04:21:20;9.30;59.80
3348;DHT22;1687;49.540;8.574;2023-03-29T04:23:46;9.20;60.00
3348;DHT22;1687;49.540;8.574;2023-03-29T04:26:12;9.20;59.90
3348;DHT22;1687;49.540;8.574;2023-03-29T04:28:40;9.30;60.10
3348;DHT22;1687;49.540;8.574;2023-03-29T04:31:13;9.20;60.00
3348;DHT22;1687;49.540;8.574;2023-03-29T04:33:39;9.10;60.00
3348;DHT22;1687;49.540;8.574;2023-03-29T04:36:05;9.00;60.00
3348;DHT22;1687;49.540;8.574;2023-03-29T04:38:32;9.00;60.10
3348;DHT22;1687;49.540;8.574;2023-03-29T04:41:00;9.00;60.30
3348;DHT22;1687;49.540;8.574;2023-03-29T04:43:29;9.10;60.60
3348;DHT22;1687;49.540;8.574;2023-03-29T04:45:55;9.10;60.50
3348;DHT22;1687;49.540;8.574;2023-03-29T04:48:22;9.10;60.60
3348;DHT22;1687;49.540;8.574;2023-03-29T04:50:48;9.20;61.00
3348;DHT22;1687;49.540;8.574;2023-03-29T04:53:14;9.30;60.80
3348;DHT22;1687;49.540;8.574;2023-03-29T04:55:39;9.30;61.70
3348;DHT22;1687;49.540;8.574;2023-03-29T04:58:06;9.40;60.90
3348;DHT22;1687;49.540;8.574;2023-03-29T05:00:32;9.40;60.90
3348;DHT22;1687;49.540;8.574;2023-03-29T05:02:58;9.40;60.90
3348;DHT22;1687;49.540;8.574;2023-03-29T05:05:24;9.40;60.90
3348;DHT22;1687;49.540;8.574;2023-03-29T05:07:49;9.40;61.00
3348;DHT22;1687;49.540;8.574;2023-03-29T05:10:15;9.40;60.80
3348;DHT22;1687;49.540;8.574;2023-03-29T05:12:41;9.40;60.90
3348;DHT22;1687;49.540;8.574;2023-03-29T05:15:07;9.30;60.70
3348;DHT22;1687;49.540;8.574;2023-03-29T05:17:34;9.20;60.60
3348;DHT22;1687;49.540;8.574;2023-03-29T05:20:00;9.20;61.00
3348;DHT22;1687;49.540;8.574;2023-03-29T05:22:26;9.20;61.10
3348;DHT22;1687;49.540;8.574;2023-03-29T05:24:53;9.20;60.90
3348;DHT22;1687;49.540;8.574;2023-03-29T05:27:19;9.30;61.20
3348;DHT22;1687;49.540;8.574;2023-03-29T05:29:47;9.40;61.50
3348;DHT22;1687;49.540;8.574;2023-03-29T05:32:14;9.30;61.00
3348;DHT22;1687;49.540;8.574;2023-03-29T05:34:40;9.30;61.10
3348;DHT22;1687;49.540;8.574;2023-03-29T05:37:05;9.30;61.20
3348;DHT22;1687;49.540;8.574;2023-03-29T05:39:31;9.20;61.10
3348;DHT22;1687;49.540;8.574;2023-03-29T05:41:58;9.20;61.10
3348;DHT22;1687;49.540;8.574;2023-03-29T05:44:24;9.20;61.30
3348;DHT22;1687;49.540;8.574;2023-03-29T05:46:51;9.20;61.20
3348;DHT22;1687;49.540;8.574;2023-03-29T05:49:17;9.20;61.30
3348;DHT22;1687;49.540;8.574;2023-03-29T05:51:42;9.20;61.30
3348;DHT22;1687;49.540;8.574;2023-03-29T05:54:10;9.20;61.50
3348;DHT22;1687;49.540;8.574;2023-03-29T05:56:36;9.30;61.80
3348;DHT22;1687;49.540;8.574;2023-03-29T05:59:02;9.30;61.90
3348;DHT22;1687;49.540;8.574;2023-03-29T06:01:28;9.40;61.80
3348;DHT22;1687;49.540;8.574;2023-03-29T06:03:53;9.50;61.70
3348;DHT22;1687;49.540;8.574;2023-03-29T06:06:21;9.50;61.80
3348;DHT22;1687;49.540;8.574;2023-03-29T06:08:47;9.40;61.50
3348;DHT22;1687;49.540;8.574;2023-03-29T06:11:13;9.40;61.70
3348;DHT22;1687;49.540;8.574;2023-03-29T06:13:40;9.40;61.70
3348;DHT22;1687;49.540;8.574;2023-03-29T06:16:07;9.50;61.80
3348;DHT22;1687;49.540;8.574;2023-03-29T06:18:37;9.40;61.50
3348;DHT22;1687;49.540;8.574;2023-03-29T06:21:05;9.40;61.70
3348;DHT22;1687;49.540;8.574;2023-03-29T06:23:32;9.40;61.80
3348;DHT22;1687;49.540;8.574;2023-03-29T06:25:57;9.50;62.10
3348;DHT22;1687;49.540;8.574;2023-03-29T06:28:24;9.50;62.00
3348;DHT22;1687;49.540;8.574;2023-03-29T06:30:50;9.50;62.00
3348;DHT22;1687;49.540;8.574;2023-03-29T06:33:18;9.60;62.20
3348;DHT22;1687;49.540;8.574;2023-03-29T06:35:48;9.70;62.30
3348;DHT22;1687;49.540;8.574;2023-03-29T06:38:14;9.80;62.20
3348;DHT22;1687;49.540;8.574;2023-03-29T06:40:41;9.90;62.20
3348;DHT22;1687;49.540;8.574;2023-03-29T06:43:07;9.90;62.20
3348;DHT22;1687;49.540;8.574;2023-03-29T06:45:35;10.00;61.10
3348;DHT22;1687;49.540;8.574;2023-03-29T06:48:02;9.90;62.00
3348;DHT22;1687;49.540;8.574;2023-03-29T06:50:29;9.90;61.90
3348;DHT22;1687;49.540;8.574;2023-03-29T06:52:55;9.80;62.00
3348;DHT22;1687;49.540;8.574;2023-03-29T06:55:22;9.90;62.30
3348;DHT22;1687;49.540;8.574;2023-03-29T06:57:48;10.00;61.30
3348;DHT22;1687;49.540;8.574;2023-03-29T07:00:14;10.00;61.10
3348;DHT22;1687;49.540;8.574;2023-03-29T07:02:53;10.00;61.10
3348;DHT22;1687;49.540;8.574;2023-03-29T07:05:26;10.00;61.30
3348;DHT22;1687;49.540;8.574;2023-03-29T07:07:53;10.10;61.40
3348;DHT22;1687;49.540;8.574;2023-03-29T07:10:22;10.10;61.50
3348;DHT22;1687;49.540;8.574;2023-03-29T07:12:51;10.20;61.70
3348;DHT22;1687;49.540;8.574;2023-03-29T07:15:18;10.20;61.40
3348;DHT22;1687;49.540;8.574;2023-03-29T07:17:46;10.20;61.50
3348;DHT22;1687;49.540;8.574;2023-03-29T07:20:13;10.30;61.70
3348;DHT22;1687;49.540;8.574;2023-03-29T07:22:40;10.40;61.90
3348;DHT22;1687;49.540;8.574;2023-03-29T07:25:08;10.60;62.20
3348;DHT22;1687;49.540;8.574;2023-03-29T07:27:39;10.80;62.80
3348;DHT22;1687;49.540;8.574;2023-03-29T07:30:07;10.90;61.90
3348;DHT22;1687;49.540;8.574;2023-03-29T07:32:37;11.00;61.90
3348;DHT22;1687;49.540;8.574;2023-03-29T07:35:04;11.00;61.90
3348;DHT22;1687;49.540;8.574;2023-03-29T07:37:31;11.00;61.90
3348;DHT22;1687;49.540;8.574;2023-03-29T07:39:58;11.10;61.90
3348;DHT22;1687;49.540;8.574;2023-03-29T07:42:25;11.10;62.00
3348;DHT22;1687;49.540;8.574;2023-03-29T07:44:52;11.30;62.20
3348;DHT22;1687;49.540;8.574;2023-03-29T07:47:18;11.50;62.10
3348;DHT22;1687;49.540;8.574;2023-03-29T07:49:44;11.60;62.00
3348;DHT22;1687;49.540;8.574;2023-03-29T07:52:10;11.70;61.90
3348;DHT22;1687;49.540;8.574;2023-03-29T07:54:36;11.60;61.60
3348;DHT22;1687;49.540;8.574;2023-03-29T07:57:02;11.70;62.10
3348;DHT22;1687;49.540;8.574;2023-03-29T07:59:28;11.90;62.00
3348;DHT22;1687;49.540;8.574;2023-03-29T08:01:54;12.00;62.10
3348;DHT22;1687;49.540;8.574;2023-03-29T08:04:21;12.10;61.80
3348;DHT22;1687;49.540;8.574;2023-03-29T08:06:46;12.10;61.70
3348;DHT22;1687;49.540;8.574;2023-03-29T08:09:14;12.20;61.80
3348;DHT22;1687;49.540;8.574;2023-03-29T08:11:40;12.30;61.80
3348;DHT22;1687;49.540;8.574;2023-03-29T08:14:06;12.30;61.30
3348;DHT22;1687;49.540;8.574;2023-03-29T08:16:33;12.30;61.60
3348;DHT22;1687;49.540;8.574;2023-03-29T08:18:59;12.20;61.20
3348;DHT22;1687;49.540;8.574;2023-03-29T08:21:25;12.30;61.60
3348;DHT22;1687;49.540;8.574;2023-03-29T08:23:50;12.50;61.80
3348;DHT22;1687;49.540;8.574;2023-03-29T08:26:16;12.60;61.50
3348;DHT22;1687;49.540;8.574;2023-03-29T08:28:42;12.60;61.40
3348;DHT22;1687;49.540;8.574;2023-03-29T08:31:08;12.70;61.60
3348;DHT22;1687;49.540;8.574;2023-03-29T08:33:34;12.80;61.40
3348;DHT22;1687;49.540;8.574;2023-03-29T08:36:01;12.80;61.40
3348;DHT22;1687;49.540;8.574;2023-03-29T08:38:28;13.00;61.50
3348;DHT22;1687;49.540;8.574;2023-03-29T08:40:54;13.10;61.20
3348;DHT22;1687;49.540;8.574;2023-03-29T08:44:13;13.10;61.30
3348;DHT22;1687;49.540;8.574;2023-03-29T08:47:13;13.30;61.20
3348;DHT22;1687;49.540;8.574;2023-03-29T08:49:54;13.30;61.00
3348;DHT22;1687;49.540;8.574;2023-03-29T08:52:36;13.30;60.70
3348;DHT22;1687;49.540;8.574;2023-03-29T08:55:09;13.20;60.50
3348;DHT22;1687;49.540;8.574;2023-03-29T08:57:48;13.20;60.60
3348;DHT22;1687;49.540;8.574;2023-03-29T09:00:46;13.20;60.40
3348;DHT22;1687;49.540;8.574;2023-03-29T09:03:21;13.20;60.30
3348;DHT22;1687;49.540;8.574;2023-03-29T09:05:52;13.30;60.60
3348;DHT22;1687;49.540;8.574;2023-03-29T09:08:21;13.50;60.60
3348;DHT22;1687;49.540;8.574;2023-03-29T09:11:03;13.60;60.30
3348;DHT22;1687;49.540;8.574;2023-03-29T09:13:47;13.60;60.30
3348;DHT22;1687;49.540;8.574;2023-03-29T09:16:46;13.60;60.10
3348;DHT22;1687;49.540;8.574;2023-03-29T09:28:09;13.30;59.70
3348;DHT22;1687;49.540;8.574;2023-03-29T09:33:23;13.50;60.00
3348;DHT22;1687;49.540;8.574;2023-03-29T09:35:59;13.50;59.80
3348;DHT22;1687;49.540;8.574;2023-03-29T09:38:29;13.60;60.00
3348;DHT22;1687;49.540;8.574;2023-03-29T09:41:03;13.60;59.60
3348;DHT22;1687;49.540;8.574;2023-03-29T09:43:34;13.60;60.30
3348;DHT22;1687;49.540;8.574;2023-03-29T09:46:07;13.70;59.80
3348;DHT22;1687;49.540;8.574;2023-03-29T09:48:40;13.70;59.60
3348;DHT22;1687;49.540;8.574;2023-03-29T09:51:08;13.80;59.80
3348;DHT22;1687;49.540;8.574;2023-03-29T09:53:35;14.10;60.10
3348;DHT22;1687;49.540;8.574;2023-03-29T09:56:01;14.10;59.50
3348;DHT22;1687;49.540;8.574;2023-03-29T09:58:28;14.20;59.80
3348;DHT22;1687;49.540;8.574;2023-03-29T10:01:00;14.20;59.70
3348;DHT22;1687;49.540;8.574;2023-03-29T10:03:30;14.50;60.00
3348;DHT22;1687;49.540;8.574;2023-03-29T10:05:59;14.70;60.10
3348;DHT22;1687;49.540;8.574;2023-03-29T10:08:34;14.90;60.10
3348;DHT22;1687;49.540;8.574;2023-03-29T10:11:12;15.00;59.90
3348;DHT22;1687;49.540;8.574;2023-03-29T10:13:45;15.10;59.60
3348;DHT22;1687;49.540;8.574;2023-03-29T10:18:46;15.10;59.70
3348;DHT22;1687;49.540;8.574;2023-03-29T10:21:15;15.10;59.30
3348;DHT22;1687;49.540;8.574;2023-03-29T10:23:43;15.20;59.60
3348;DHT22;1687;49.540;8.574;2023-03-29T10:26:23;15.30;59.70
3348;DHT22;1687;49.540;8.574;2023-03-29T10:28:53;15.40;59.80
3348;DHT22;1687;49.540;8.574;2023-03-29T10:31:21;15.70;59.90
3348;DHT22;1687;49.540;8.574;2023-03-29T10:33:53;15.90;59.90
3348;DHT22;1687;49.540;8.574;2023-03-29T10:36:21;16.20;59.80
3348;DHT22;1687;49.540;8.574;2023-03-29T10:38:51;16.10;59.20
3348;DHT22;1687;49.540;8.574;2023-03-29T10:41:19;16.20;59.50
3348;DHT22;1687;49.540;8.574;2023-03-29T10:43:47;16.20;59.30
3348;DHT22;1687;49.540;8.574;2023-03-29T10:46:40;16.30;59.40
3348;DHT22;1687;49.540;8.574;2023-03-29T10:49:17;16.60;59.50
3348;DHT22;1687;49.540;8.574;2023-03-29T10:51:45;16.80;59.30
3348;DHT22;1687;49.540;8.574;2023-03-29T10:54:13;16.80;59.10
3348;DHT22;1687;49.540;8.574;2023-03-29T10:56:57;16.90;58.90
3348;DHT22;1687;49.540;8.574;2023-03-29T10:59:27;16.70;58.50
3348;DHT22;1687;49.540;8.574;2023-03-29T11:04:45;16.60;59.00
3348;DHT22;1687;49.540;8.574;2023-03-29T11:10:51;16.60;58.20
3348;DHT22;1687;49.540;8.574;2023-03-29T11:25:02;16.80;57.50
3348;DHT22;1687;49.540;8.574;2023-03-29T11:30:38;16.90;57.30
3348;DHT22;1687;49.540;8.574;2023-03-29T11:33:23;16.80;57.20
3348;DHT22;1687;49.540;8.574;2023-03-29T11:36:19;17.00;57.30
3348;DHT22;1687;49.540;8.574;2023-03-29T11:41:46;16.90;56.70
3348;DHT22;1687;49.540;8.574;2023-03-29T11:44:39;17.00;56.80
3348;DHT22;1687;49.540;8.574;2023-03-29T11:47:23;17.10;56.80
3348;DHT22;1687;49.540;8.574;2023-03-29T11:49:55;17.20;56.70
3348;DHT22;1687;49.540;8.574;2023-03-29T11:52:35;17.20;56.50
3348;DHT22;1687;49.540;8.574;2023-03-29T11:55:25;17.20;56.30
3348;DHT22;1687;49.540;8.574;2023-03-29T11:58:04;17.20;56.30
3348;DHT22;1687;49.540;8.574;2023-03-29T12:00:44;17.30;56.20
3348;DHT22;1687;49.540;8.574;2023-03-29T12:05:55;17.20;56.20
3348;DHT22;1687;49.540;8.574;2023-03-29T12:08:38;17.30;56.10
3348;DHT22;1687;49.540;8.574;2023-03-29T12:11:32;17.30;55.90
3348;DHT22;1687;49.540;8.574;2023-03-29T12:14:24;17.30;56.10
3348;DHT22;1687;49.540;8.574;2023-03-29T12:17:00;17.30;55.90
3348;DHT22;1687;49.540;8.574;2023-03-29T12:22:29;17.40;56.10
3348;DHT22;1687;49.540;8.574;2023-03-29T12:24:56;17.50;56.00
3348;DHT22;1687;49.540;8.574;2023-03-29T12:27:29;17.70;56.20
3348;DHT22;1687;49.540;8.574;2023-03-29T12:33:00;18.40;56.20
3348;DHT22;1687;49.540;8.574;2023-03-29T12:38:39;18.80;56.00
3348;DHT22;1687;49.540;8.574;2023-03-29T12:41:26;18.90;55.70
3348;DHT22;1687;49.540;8.574;2023-03-29T12:43:53;19.10;55.90
3348;DHT22;1687;49.540;8.574;2023-03-29T12:46:26;19.20;55.60
3348;DHT22;1687;49.540;8.574;2023-03-29T12:49:00;19.30;55.70
3348;DHT22;1687;49.540;8.574;2023-03-29T12:51:34;19.30;55.50
3348;DHT22;1687;49.540;8.574;2023-03-29T12:54:15;19.40;55.60
3348;DHT22;1687;49.540;8.574;2023-03-29T12:59:37;19.20;54.90
3348;DHT22;1687;49.540;8.574;2023-03-29T13:10:05;19.40;55.00
3348;DHT22;1687;49.540;8.574;2023-03-29T13:12:45;19.70;55.10
3348;DHT22;1687;49.540;8.574;2023-03-29T13:17:47;19.80;54.40
3348;DHT22;1687;49.540;8.574;2023-03-29T13:26:38;20.20;54.20
3348;DHT22;1687;49.540;8.574;2023-03-29T13:29:28;20.30;54.30
3348;DHT22;1687;49.540;8.574;2023-03-29T13:34:56;20.30;54.00
3348;DHT22;1687;49.540;8.574;2023-03-29T13:38:07;20.40;54.00
3348;DHT22;1687;49.540;8.574;2023-03-29T13:48:32;20.40;53.40
3348;DHT22;1687;49.540;8.574;2023-03-29T13:53:54;20.80;53.40
3348;DHT22;1687;49.540;8.574;2023-03-29T13:56:39;21.00;53.50
3348;DHT22;1687;49.540;8.574;2023-03-29T13:59:17;21.20;53.30
3348;DHT22;1687;49.540;8.574;2023-03-29T14:01:58;21.20;53.00
3348;DHT22;1687;49.540;8.574;2023-03-29T14:04:38;21.20;53.10
3348;DHT22;1687;49.540;8.574;2023-03-29T14:07:12;21.30;52.90
3348;DHT22;1687;49.540;8.574;2023-03-29T14:09:42;21.20;52.70
3348;DHT22;1687;49.540;8.574;2023-03-29T14:12:13;21.00;52.30
3348;DHT22;1687;49.540;8.574;2023-03-29T14:14:43;20.80;52.30
3348;DHT22;1687;49.540;8.574;2023-03-29T14:17:19;20.40;52.10
3348;DHT22;1687;49.540;8.574;2023-03-29T14:19:46;20.30;52.60
3348;DHT22;1687;49.540;8.574;2023-03-29T14:22:14;20.10;52.30
3348;DHT22;1687;49.540;8.574;2023-03-29T14:24:47;20.00;52.40
3348;DHT22;1687;49.540;8.574;2023-03-29T14:27:16;19.90;52.50
3348;DHT22;1687;49.540;8.574;2023-03-29T14:29:51;19.90;52.60
3348;DHT22;1687;49.540;8.574;2023-03-29T14:32:25;19.80;52.60
3348;DHT22;1687;49.540;8.574;2023-03-29T14:34:52;19.70;52.80
3348;DHT22;1687;49.540;8.574;2023-03-29T14:37:27;19.50;52.70
3348;DHT22;1687;49.540;8.574;2023-03-29T14:39:54;19.30;52.70
3348;DHT22;1687;49.540;8.574;2023-03-29T14:42:24;19.20;52.80
3348;DHT22;1687;49.540;8.574;2023-03-29T14:44:57;19.00;52.90
3348;DHT22;1687;49.540;8.574;2023-03-29T14:47:29;19.00;53.10
3348;DHT22;1687;49.540;8.574;2023-03-29T14:49:57;19.00;53.20
3348;DHT22;1687;49.540;8.574;2023-03-29T14:52:25;19.10;53.30
3348;DHT22;1687;49.540;8.574;2023-03-29T14:54:54;19.30;53.50
3348;DHT22;1687;49.540;8.574;2023-03-29T14:57:25;19.50;53.40
3348;DHT22;1687;49.540;8.574;2023-03-29T14:59:58;19.30;53.30
3348;DHT22;1687;49.540;8.574;2023-03-29T15:02:30;19.20;53.40
3348;DHT22;1687;49.540;8.574;2023-03-29T15:07:31;19.10;53.40
3348;DHT22;1687;49.540;8.574;2023-03-29T15:09:59;19.00;53.40
3348;DHT22;1687;49.540;8.574;2023-03-29T15:12:30;19.20;53.80
3348;DHT22;1687;49.540;8.574;2023-03-29T15:14:57;19.30;53.70
3348;DHT22;1687;49.540;8.574;2023-03-29T15:17:30;19.30;53.70
3348;DHT22;1687;49.540;8.574;2023-03-29T15:20:02;19.10;53.50
3348;DHT22;1687;49.540;8.574;2023-03-29T15:22:37;19.00;53.50
3348;DHT22;1687;49.540;8.574;2023-03-29T15:25:14;19.00;53.80
3348;DHT22;1687;49.540;8.574;2023-03-29T15:27:41;19.00;53.90
3348;DHT22;1687;49.540;8.574;2023-03-29T15:30:12;18.90;54.00
3348;DHT22;1687;49.540;8.574;2023-03-29T15:32:39;18.80;54.00
3348;DHT22;1687;49.540;8.574;2023-03-29T15:35:16;18.70;54.00
3348;DHT22;1687;49.540;8.574;2023-03-29T15:37:46;18.70;54.20
3348;DHT22;1687;49.540;8.574;2023-03-29T15:40:14;18.60;54.20
3348;DHT22;1687;49.540;8.574;2023-03-29T15:42:40;18.50;54.40
3348;DHT22;1687;49.540;8.574;2023-03-29T15:45:11;18.60;54.80
3348;DHT22;1687;49.540;8.574;2023-03-29T15:47:39;18.70;54.90
3348;DHT22;1687;49.540;8.574;2023-03-29T15:50:05;18.60;54.70
3348;DHT22;1687;49.540;8.574;2023-03-29T15:52:31;18.60;54.90
3348;DHT22;1687;49.540;8.574;2023-03-29T15:54:57;18.60;55.00
3348;DHT22;1687;49.540;8.574;2023-03-29T15:57:22;18.50;55.10
3348;DHT22;1687;49.540;8.574;2023-03-29T15:59:48;18.60;55.30
3348;DHT22;1687;49.540;8.574;2023-03-29T16:02:14;18.50;55.30
3348;DHT22;1687;49.540;8.574;2023-03-29T16:04:47;18.50;55.70
3348;DHT22;1687;49.540;8.574;2023-03-29T16:07:15;18.50;56.30
3348;DHT22;1687;49.540;8.574;2023-03-29T16:09:42;18.50;55.70
3348;DHT22;1687;49.540;8.574;2023-03-29T16:12:09;18.40;56.00
3348;DHT22;1687;49.540;8.574;2023-03-29T16:14:35;18.30;56.20
3348;DHT22;1687;49.540;8.574;2023-03-29T16:17:03;18.20;56.50
3348;DHT22;1687;49.540;8.574;2023-03-29T16:19:30;18.20;56.80
3348;DHT22;1687;49.540;8.574;2023-03-29T16:21:57;18.20;57.00
3348;DHT22;1687;49.540;8.574;2023-03-29T16:24:26;18.20;56.90
3348;DHT22;1687;49.540;8.574;2023-03-29T16:26:54;18.10;57.00
3348;DHT22;1687;49.540;8.574;2023-03-29T16:29:21;18.10;57.20
3348;DHT22;1687;49.540;8.574;2023-03-29T16:31:47;18.10;57.20
3348;DHT22;1687;49.540;8.574;2023-03-29T16:34:14;18.00;57.10
3348;DHT22;1687;49.540;8.574;2023-03-29T16:36:40;17.90;57.30
3348;DHT22;1687;49.540;8.574;2023-03-29T16:39:08;17.80;57.30
3348;DHT22;1687;49.540;8.574;2023-03-29T16:41:35;17.80;57.30
3348;DHT22;1687;49.540;8.574;2023-03-29T16:44:02;17.70;57.30
3348;DHT22;1687;49.540;8.574;2023-03-29T16:46:28;17.70;57.40
3348;DHT22;1687;49.540;8.574;2023-03-29T16:48:55;17.70;57.50
3348;DHT22;1687;49.540;8.574;2023-03-29T16:51:22;17.70;57.50
3348;DHT22;1687;49.540;8.574;2023-03-29T16:53:49;17.70;57.60
3348;DHT22;1687;49.540;8.574;2023-03-29T16:56:18;17.70;57.50
3348;DHT22;1687;49.540;8.574;2023-03-29T16:58:44;17.70;57.50
3348;DHT22;1687;49.540;8.574;2023-03-29T17:01:13;17.60;57.50
3348;DHT22;1687;49.540;8.574;2023-03-29T17:03:41;17.60;57.50
3348;DHT22;1687;49.540;8.574;2023-03-29T17:06:09;17.50;57.50
3348;DHT22;1687;49.540;8.574;2023-03-29T17:08:36;17.50;57.60
3348;DHT22;1687;49.540;8.574;2023-03-29T17:11:03;17.40;57.50
3348;DHT22;1687;49.540;8.574;2023-03-29T17:13:30;17.40;57.60
3348;DHT22;1687;49.540;8.574;2023-03-29T17:15:56;17.30;57.60
3348;DHT22;1687;49.540;8.574;2023-03-29T17:18:24;17.30;57.70
3348;DHT22;1687;49.540;8.574;2023-03-29T17:20:51;17.30;57.70
3348;DHT22;1687;49.540;8.574;2023-03-29T17:23:17;17.20;57.70
3348;DHT22;1687;49.540;8.574;2023-03-29T17:25:43;17.10;57.70
3348;DHT22;1687;49.540;8.574;2023-03-29T17:28:09;17.10;57.70
3348;DHT22;1687;49.540;8.574;2023-03-29T17:30:35;17.00;57.70
3348;DHT22;1687;49.540;8.574;2023-03-29T17:33:03;17.00;57.70
3348;DHT22;1687;49.540;8.574;2023-03-29T17:35:29;16.90;57.70
3348;DHT22;1687;49.540;8.574;2023-03-29T17:37:55;16.90;57.80
3348;DHT22;1687;49.540;8.574;2023-03-29T17:40:22;16.80;57.70
3348;DHT22;1687;49.540;8.574;2023-03-29T17:42:47;16.80;57.80
3348;DHT22;1687;49.540;8.574;2023-03-29T17:45:14;16.80;57.80
3348;DHT22;1687;49.540;8.574;2023-03-29T17:47:40;16.80;57.80
3348;DHT22;1687;49.540;8.574;2023-03-29T17:50:08;16.80;57.90
3348;DHT22;1687;49.540;8.574;2023-03-29T17:52:35;16.80;57.80
3348;DHT22;1687;49.540;8.574;2023-03-29T17:55:00;16.70;57.80
3348;DHT22;1687;49.540;8.574;2023-03-29T17:57:27;16.70;57.80
3348;DHT22;1687;49.540;8.574;2023-03-29T17:59:52;16.70;57.80
3348;DHT22;1687;49.540;8.574;2023-03-29T18:02:20;16.60;57.80